createdAt,value
2022-12-02T00:01:17.019Z,33.43
2022-12-02T00:03:46.397Z,34.20
2022-12-02T00:06:17.704Z,38.07
2022-12-02T00:08:46.032Z,35.70
2022-12-02T00:11:27.740Z,39.40
2022-12-02T00:13:58.333Z,39.40
2022-12-02T00:16:27.593Z,38.40
2022-12-02T00:18:56.909Z,38.93
2022-12-02T00:21:26.150Z,40.50
2022-12-02T00:23:54.200Z,39.07
2022-12-02T00:26:22.281Z,37.70
2022-12-02T00:28:50.262Z,39.13
2022-12-02T00:31:18.912Z,37.43
2022-12-02T00:33:46.819Z,36.40
2022-12-02T00:36:15.131Z,35.60
2022-12-02T00:38:44.606Z,36.70
2022-12-02T00:41:12.510Z,33.53
2022-12-02T00:43:57.854Z,35.23
2022-12-02T00:46:35.155Z,34.43
2022-12-02T00:49:06.797Z,32.27
2022-12-02T00:51:35.576Z,34.33
2022-12-02T00:54:05.000Z,35.80
2022-12-02T00:56:34.292Z,34.60
2022-12-02T00:59:02.827Z,34.17
2022-12-02T01:01:30.976Z,31.60
2022-12-02T01:03:59.767Z,32.47
2022-12-02T01:06:27.642Z,32.93
2022-12-02T01:08:55.533Z,33.20
2022-12-02T01:11:24.930Z,31.90
2022-12-02T01:13:53.999Z,31.43
2022-12-02T01:16:22.078Z,32.87
2022-12-02T01:18:50.170Z,33.73
2022-12-02T01:21:18.178Z,32.73
2022-12-02T01:23:46.025Z,33.10
2022-12-02T01:26:14.042Z,34.87
2022-12-02T01:28:44.317Z,33.03
2022-12-02T01:31:12.388Z,34.10
2022-12-02T01:33:40.743Z,35.87
2022-12-02T01:36:09.532Z,33.33
2022-12-02T01:38:37.639Z,37.10
2022-12-02T01:41:07.177Z,37.33
2022-12-02T01:43:35.523Z,38.70
2022-12-02T01:46:05.223Z,38.83
2022-12-02T01:48:33.282Z,39.33
2022-12-02T01:51:01.385Z,38.43
2022-12-02T01:53:29.762Z,40.27
2022-12-02T01:55:58.062Z,39.70
2022-12-02T01:58:28.639Z,40.40
2022-12-02T02:00:57.190Z,41.33
2022-12-02T02:03:26.475Z,41.73
2022-12-02T02:05:54.647Z,40.17
2022-12-02T02:08:22.959Z,39.80
2022-12-02T02:10:51.046Z,40.10
2022-12-02T02:13:19.423Z,41.13
2022-12-02T02:15:47.778Z,41.23
2022-12-02T02:18:17.712Z,39.37
2022-12-02T02:20:47.035Z,43.00
2022-12-02T02:23:26.897Z,39.73
2022-12-02T02:25:57.635Z,37.40
2022-12-02T02:28:27.404Z,40.90
2022-12-02T02:30:58.394Z,39.87
2022-12-02T02:33:30.112Z,38.30
2022-12-02T02:35:58.378Z,40.37
2022-12-02T02:38:29.666Z,39.03
2022-12-02T02:40:58.634Z,38.50
2022-12-02T02:43:28.994Z,39.87
2022-12-02T02:45:58.305Z,39.20
2022-12-02T02:48:27.443Z,38.50
2022-12-02T02:50:56.698Z,38.57
2022-12-02T02:53:28.987Z,36.90
2022-12-02T02:55:57.121Z,38.77
2022-12-02T02:58:26.802Z,37.40
2022-12-02T03:00:58.941Z,38.23
2022-12-02T03:03:31.286Z,38.40
2022-12-02T03:06:01.236Z,39.47
2022-12-02T03:08:32.502Z,38.80
2022-12-02T03:11:02.864Z,39.60
2022-12-02T03:13:32.767Z,38.13
2022-12-02T03:16:02.243Z,38.00
2022-12-02T03:18:30.518Z,38.73
2022-12-02T03:20:59.143Z,38.97
2022-12-02T03:23:27.732Z,39.87
2022-12-02T03:25:58.156Z,38.53
2022-12-02T03:28:27.780Z,38.70
2022-12-02T03:30:56.390Z,37.87
2022-12-02T03:33:24.560Z,37.30
2022-12-02T03:35:52.696Z,37.43
2022-12-02T03:38:20.563Z,38.73
2022-12-02T03:40:49.397Z,41.63
2022-12-02T03:43:18.609Z,39.97
2022-12-02T03:45:46.901Z,39.27
2022-12-02T03:48:17.338Z,41.07
2022-12-02T03:50:45.189Z,41.07
2022-12-02T03:53:13.183Z,40.53
2022-12-02T03:55:41.323Z,38.67
2022-12-02T03:58:11.042Z,39.73
2022-12-02T04:00:40.540Z,39.67
2022-12-02T04:03:08.720Z,41.20
2022-12-02T04:05:36.627Z,39.60
2022-12-02T04:08:04.526Z,39.80
2022-12-02T04:10:32.659Z,39.73
2022-12-02T04:13:00.476Z,38.93
2022-12-02T04:15:28.472Z,39.10
2022-12-02T04:17:57.800Z,38.30
2022-12-02T04:20:25.592Z,38.57
2022-12-02T04:22:53.466Z,41.70
2022-12-02T04:25:21.539Z,40.93
2022-12-02T04:27:49.456Z,39.43
2022-12-02T04:30:17.584Z,38.63
2022-12-02T04:32:45.576Z,40.23
2022-12-02T04:35:15.025Z,39.37
2022-12-02T04:37:42.903Z,39.10
2022-12-02T04:40:11.792Z,39.07
2022-12-02T04:42:39.616Z,39.80
2022-12-02T04:45:08.338Z,40.20
2022-12-02T04:47:36.255Z,40.07
2022-12-02T04:50:04.456Z,40.80
2022-12-02T04:52:33.653Z,43.90
2022-12-02T04:55:01.630Z,39.80
2022-12-02T04:57:31.638Z,40.77
2022-12-02T04:59:59.668Z,41.17
2022-12-02T05:02:27.714Z,38.13
2022-12-02T05:04:55.849Z,38.33
2022-12-02T05:07:23.925Z,38.27
2022-12-02T05:09:53.270Z,38.03
2022-12-02T05:12:22.481Z,39.77
2022-12-02T05:14:50.591Z,39.93
2022-12-02T05:17:18.692Z,39.70
2022-12-02T05:19:46.585Z,37.90
2022-12-02T05:22:14.440Z,39.73
2022-12-02T05:24:42.457Z,36.60
2022-12-02T05:27:12.475Z,37.37
2022-12-02T05:29:40.272Z,38.07
2022-12-02T05:32:08.307Z,39.40
2022-12-02T05:34:36.126Z,38.60
2022-12-02T05:37:04.311Z,37.43
2022-12-02T05:39:32.317Z,38.57
2022-12-02T05:42:03.408Z,39.10
2022-12-02T05:44:39.593Z,37.07
2022-12-02T05:47:12.985Z,37.43
2022-12-02T05:49:42.196Z,37.40
2022-12-02T05:52:21.900Z,40.97
2022-12-02T05:54:50.391Z,36.73
2022-12-02T05:57:25.983Z,37.33
2022-12-02T06:00:14.442Z,38.73
2022-12-02T06:02:46.328Z,35.93
2022-12-02T06:05:19.745Z,36.80
2022-12-02T06:07:49.567Z,36.80
2022-12-02T06:10:26.828Z,34.47
2022-12-02T06:12:56.808Z,36.27
2022-12-02T06:15:26.433Z,35.43
2022-12-02T06:17:54.380Z,35.43
2022-12-02T06:20:29.913Z,36.33
2022-12-02T06:22:58.987Z,34.53
2022-12-02T06:25:29.097Z,34.57
2022-12-02T06:28:07.377Z,33.40
2022-12-02T06:30:40.435Z,35.33
2022-12-02T06:33:22.352Z,34.57
2022-12-02T06:35:50.972Z,36.03
2022-12-02T06:38:28.269Z,34.20
2022-12-02T06:40:56.426Z,35.67
2022-12-02T06:43:27.344Z,34.40
2022-12-02T06:45:57.120Z,34.23
2022-12-02T06:48:29.999Z,33.60
2022-12-02T06:51:00.708Z,34.47
2022-12-02T06:53:35.056Z,34.93
2022-12-02T06:56:07.222Z,33.63
2022-12-02T06:58:40.711Z,33.47
2022-12-02T07:01:35.210Z,34.97
2022-12-02T07:04:28.294Z,33.83
2022-12-02T07:06:59.688Z,33.23
2022-12-02T07:09:36.402Z,34.97
2022-12-02T07:12:05.228Z,35.00
2022-12-02T07:14:44.432Z,35.57
2022-12-02T07:17:23.013Z,36.37
2022-12-02T07:19:58.135Z,37.10
2022-12-02T07:22:31.780Z,35.27
2022-12-02T07:25:21.066Z,33.73
2022-12-02T07:27:51.839Z,33.80
2022-12-02T07:30:26.631Z,36.40
2022-12-02T07:32:55.961Z,35.90
2022-12-02T07:35:24.091Z,35.90
2022-12-02T07:37:52.536Z,36.27
2022-12-02T07:40:21.451Z,34.47
2022-12-02T07:42:49.515Z,34.40
2022-12-02T07:45:20.291Z,35.03
2022-12-02T07:47:48.131Z,35.73
2022-12-02T07:50:17.970Z,35.17
2022-12-02T07:52:45.814Z,35.77
2022-12-02T07:55:13.719Z,36.03
2022-12-02T07:57:41.508Z,35.63
2022-12-02T08:00:10.735Z,34.57
2022-12-02T08:02:38.835Z,34.63
2022-12-02T08:05:07.669Z,35.00
2022-12-02T08:07:36.960Z,33.40
2022-12-02T08:10:05.466Z,34.70
2022-12-02T08:12:33.735Z,33.90
2022-12-02T08:15:01.591Z,35.27
2022-12-02T08:17:31.881Z,34.20
2022-12-02T08:19:59.723Z,34.10
2022-12-02T08:22:27.515Z,33.93
2022-12-02T08:24:56.947Z,33.80
2022-12-02T08:27:25.085Z,33.90
2022-12-02T08:29:53.358Z,34.43
2022-12-02T08:32:21.538Z,33.50
2022-12-02T08:34:49.648Z,36.40
2022-12-02T08:37:18.027Z,36.23
2022-12-02T08:39:45.872Z,35.43
2022-12-02T08:42:15.060Z,34.93
2022-12-02T08:44:42.916Z,35.57
2022-12-02T08:47:11.267Z,34.87
2022-12-02T08:49:39.481Z,35.03
2022-12-02T08:52:07.341Z,35.20
2022-12-02T08:54:35.267Z,34.50
2022-12-02T08:57:03.190Z,34.87
2022-12-02T08:59:33.052Z,36.60
2022-12-02T09:02:00.975Z,34.80
2022-12-02T09:04:28.859Z,35.77
2022-12-02T09:06:56.741Z,36.00
2022-12-02T09:09:24.612Z,37.97
2022-12-02T09:11:52.457Z,37.80
2022-12-02T09:14:20.260Z,35.73
2022-12-02T09:16:50.532Z,35.07
2022-12-02T09:19:18.404Z,37.80
2022-12-02T09:21:46.305Z,37.10
2022-12-02T09:24:14.258Z,38.37
2022-12-02T09:26:42.064Z,36.73
2022-12-02T09:29:09.902Z,36.97
2022-12-02T09:31:37.892Z,37.90
2022-12-02T09:34:07.307Z,36.13
2022-12-02T09:36:35.182Z,36.97
2022-12-02T09:39:03.361Z,37.53
2022-12-02T09:41:31.320Z,37.70
2022-12-02T09:43:59.262Z,38.43
2022-12-02T09:46:27.517Z,38.90
2022-12-02T09:48:55.445Z,37.27
2022-12-02T09:51:24.916Z,38.53
2022-12-02T09:53:53.137Z,37.87
2022-12-02T09:56:22.691Z,39.43
2022-12-02T09:58:52.971Z,44.70
2022-12-02T10:01:21.044Z,39.30
2022-12-02T10:03:51.835Z,37.77
2022-12-02T10:06:23.325Z,37.37
2022-12-02T10:08:53.653Z,37.90
2022-12-02T10:11:24.760Z,38.77
2022-12-02T10:13:52.743Z,39.70
2022-12-02T10:16:20.716Z,40.27
2022-12-02T10:18:49.271Z,39.20
2022-12-02T10:21:17.121Z,39.87
2022-12-02T10:24:01.066Z,40.33
2022-12-02T10:26:31.448Z,36.30
2022-12-02T10:29:08.230Z,37.50
2022-12-02T10:31:36.451Z,39.77
2022-12-02T10:34:07.244Z,39.17
2022-12-02T10:36:37.135Z,38.03
2022-12-02T10:39:22.853Z,38.93
2022-12-02T10:41:51.751Z,37.50
2022-12-02T10:44:22.081Z,37.87
2022-12-02T10:46:51.355Z,40.60
2022-12-02T10:49:30.840Z,59.03
2022-12-02T10:52:02.660Z,40.77
2022-12-02T10:54:41.199Z,43.37
2022-12-02T10:57:15.405Z,41.07
2022-12-02T10:59:43.472Z,53.77
2022-12-02T11:02:22.206Z,41.13
2022-12-02T11:04:50.753Z,37.90
2022-12-02T11:07:27.378Z,35.23
2022-12-02T11:09:58.494Z,34.47
2022-12-02T11:12:38.452Z,37.57
2022-12-02T11:15:34.648Z,36.30
2022-12-02T11:18:03.639Z,35.80
2022-12-02T11:20:38.365Z,35.13
2022-12-02T11:23:17.867Z,34.47
2022-12-02T11:26:01.877Z,36.63
2022-12-02T11:29:04.357Z,36.23
2022-12-02T11:31:32.322Z,36.77
2022-12-02T11:34:07.048Z,36.03
2022-12-02T11:36:38.042Z,36.47
2022-12-02T11:39:08.237Z,36.50
2022-12-02T11:42:24.311Z,35.90
2022-12-02T11:44:53.253Z,35.40
2022-12-02T11:47:27.339Z,35.20
2022-12-02T11:49:56.269Z,35.07
2022-12-02T11:52:26.238Z,34.00
2022-12-02T11:55:06.147Z,34.93
2022-12-02T11:57:46.956Z,35.07
2022-12-02T12:00:22.633Z,33.43
2022-12-02T12:03:09.291Z,32.50
2022-12-02T12:05:37.773Z,34.70
2022-12-02T12:08:06.171Z,35.63
2022-12-02T12:10:36.224Z,34.70
2022-12-02T12:13:22.652Z,33.67
2022-12-02T12:15:53.163Z,34.17
2022-12-02T12:18:44.047Z,34.13
2022-12-02T12:21:13.203Z,33.77
2022-12-02T12:23:44.891Z,33.57
2022-12-02T12:26:31.364Z,33.43
2022-12-02T12:29:06.522Z,33.03
2022-12-02T12:31:38.736Z,33.70
2022-12-02T12:34:09.034Z,32.57
2022-12-02T12:36:37.479Z,33.70
2022-12-02T12:39:09.484Z,33.23
2022-12-02T12:44:30.551Z,33.17
2022-12-02T12:46:59.947Z,34.43
2022-12-02T12:49:28.487Z,32.27
2022-12-02T12:51:56.627Z,32.97
2022-12-02T12:54:24.460Z,32.83
2022-12-02T12:56:52.370Z,34.17
2022-12-02T12:59:20.247Z,32.93
2022-12-02T13:01:49.588Z,32.77
2022-12-02T13:04:17.948Z,31.90
2022-12-02T13:06:47.156Z,30.47
2022-12-02T13:09:16.415Z,31.83
2022-12-02T13:11:44.658Z,32.33
2022-12-02T13:14:12.494Z,31.23
2022-12-02T13:16:40.497Z,30.67
2022-12-02T13:19:09.822Z,29.73
2022-12-02T13:21:38.293Z,28.90
2022-12-02T13:24:06.610Z,30.17
2022-12-02T13:26:34.608Z,27.10
2022-12-02T13:29:02.541Z,26.77
2022-12-02T13:31:31.919Z,25.50
2022-12-02T13:34:00.027Z,25.43
2022-12-02T13:36:29.394Z,25.27
2022-12-02T13:39:05.956Z,25.00
2022-12-02T13:41:37.215Z,24.90
2022-12-02T13:44:05.600Z,25.00
2022-12-02T13:46:33.767Z,26.87
2022-12-02T13:49:06.061Z,25.93
2022-12-02T13:51:36.566Z,26.63
2022-12-02T13:54:04.744Z,26.40
2022-12-02T13:56:32.656Z,26.20
2022-12-02T13:59:00.809Z,26.27
2022-12-02T14:01:30.105Z,25.47
2022-12-02T14:03:58.330Z,24.90
2022-12-02T14:06:26.481Z,24.43
2022-12-02T14:08:55.859Z,25.90
2022-12-02T14:11:23.973Z,24.23
2022-12-02T14:13:51.795Z,23.20
2022-12-02T14:16:20.017Z,24.13
2022-12-02T14:18:52.372Z,23.60
2022-12-02T14:21:23.525Z,24.80
2022-12-02T14:23:51.494Z,23.03
2022-12-02T14:26:20.927Z,24.30
2022-12-02T14:28:49.005Z,24.43
2022-12-02T14:31:25.650Z,23.50
2022-12-02T14:34:11.949Z,24.13
2022-12-02T14:36:41.251Z,24.37
2022-12-02T14:39:09.443Z,22.97
2022-12-02T14:41:38.687Z,24.67
2022-12-02T14:44:06.789Z,25.40
2022-12-02T14:46:34.887Z,25.80
2022-12-02T14:49:37.311Z,25.70
2022-12-02T14:51:51.200Z,26.67
2022-12-02T14:54:19.367Z,26.07
2022-12-02T14:56:48.587Z,27.03
2022-12-02T14:59:16.995Z,27.13
2022-12-02T15:01:44.944Z,25.97
2022-12-02T15:04:13.104Z,26.80
2022-12-02T15:06:41.058Z,26.33
2022-12-02T15:09:08.941Z,25.37
2022-12-02T15:11:36.870Z,25.03
2022-12-02T15:14:06.249Z,26.17
2022-12-02T15:16:35.396Z,25.47
2022-12-02T15:19:03.526Z,26.97
2022-12-02T15:21:31.457Z,26.57
2022-12-02T15:23:59.327Z,26.13
2022-12-02T15:26:27.158Z,26.33
2022-12-02T15:28:56.501Z,25.83
2022-12-02T15:31:25.963Z,25.93
2022-12-02T15:33:53.852Z,26.73
2022-12-02T15:36:22.140Z,26.83
2022-12-02T15:38:50.470Z,26.23
2022-12-02T15:41:18.393Z,26.57
2022-12-02T15:43:52.951Z,27.13
2022-12-02T15:46:22.520Z,25.17
2022-12-02T15:48:52.496Z,27.17
2022-12-02T15:51:21.135Z,25.80
2022-12-02T15:53:49.523Z,25.77
2022-12-02T15:56:17.771Z,25.90
2022-12-02T15:58:47.194Z,26.23
2022-12-02T16:01:15.261Z,25.13
2022-12-02T16:03:43.643Z,23.90
2022-12-02T16:06:13.019Z,24.70
2022-12-02T16:08:40.991Z,24.40
2022-12-02T16:11:10.013Z,23.43
2022-12-02T16:13:39.120Z,23.80
2022-12-02T16:16:07.570Z,23.07
2022-12-02T16:18:35.784Z,25.60
2022-12-02T16:21:03.835Z,23.23
2022-12-02T16:23:34.312Z,22.97
2022-12-02T16:26:02.265Z,22.47
2022-12-02T16:28:30.115Z,22.20
2022-12-02T16:30:58.121Z,23.83
2022-12-02T16:33:26.090Z,23.57
2022-12-02T16:35:53.958Z,23.97
2022-12-02T16:38:21.840Z,24.07
2022-12-02T16:40:51.458Z,23.43
2022-12-02T16:43:19.343Z,22.43
2022-12-02T16:45:47.281Z,22.57
2022-12-02T16:48:15.251Z,23.70
2022-12-02T16:50:43.117Z,22.10
2022-12-02T16:53:11.069Z,21.40
2022-12-02T16:55:39.760Z,21.50
2022-12-02T16:58:08.915Z,20.47
2022-12-02T17:00:36.940Z,21.50
2022-12-02T17:03:05.063Z,20.77
2022-12-02T17:05:32.928Z,21.37
2022-12-02T17:08:01.084Z,20.47
2022-12-02T17:10:31.789Z,20.23
2022-12-02T17:12:59.930Z,20.73
2022-12-02T17:15:30.036Z,20.77
2022-12-02T17:17:58.087Z,19.70
2022-12-02T17:20:31.930Z,20.63
2022-12-02T17:22:59.771Z,20.27
2022-12-02T17:25:27.618Z,19.63
2022-12-02T17:27:56.016Z,19.20
2022-12-02T17:30:24.251Z,20.50
2022-12-02T17:32:57.009Z,21.10
2022-12-02T17:35:25.404Z,20.03
2022-12-02T17:37:53.321Z,20.73
2022-12-02T17:40:21.224Z,20.70
2022-12-02T17:42:49.172Z,22.03
2022-12-02T17:45:17.232Z,21.53
2022-12-02T17:47:45.009Z,21.47
2022-12-02T17:50:16.966Z,21.93
2022-12-02T17:52:45.304Z,21.90
2022-12-02T17:55:14.509Z,22.50
2022-12-02T17:57:43.136Z,22.63
2022-12-02T18:00:13.445Z,23.23
2022-12-02T18:02:41.560Z,22.97
2022-12-02T18:05:10.391Z,22.80
2022-12-02T18:07:39.739Z,22.70
2022-12-02T18:10:08.493Z,21.77
2022-12-02T18:12:36.451Z,21.63
2022-12-02T18:15:04.758Z,20.80
2022-12-02T18:17:32.742Z,21.33
2022-12-02T18:20:00.665Z,21.70
2022-12-02T18:22:28.584Z,21.17
2022-12-02T18:24:59.609Z,20.60
2022-12-02T18:27:28.449Z,23.07
2022-12-02T18:29:56.613Z,22.10
2022-12-02T18:32:24.492Z,21.43
2022-12-02T18:34:52.672Z,21.73
2022-12-02T18:37:20.724Z,25.37
2022-12-02T18:39:48.556Z,21.37
2022-12-02T18:42:17.799Z,23.00
2022-12-02T18:44:45.661Z,22.20
2022-12-02T18:47:13.958Z,21.60
2022-12-02T18:49:42.958Z,22.97
2022-12-02T18:52:11.542Z,22.50
2022-12-02T18:54:39.548Z,21.77
2022-12-02T18:57:07.557Z,22.03
2022-12-02T18:59:37.805Z,22.00
2022-12-02T19:02:05.949Z,22.53
2022-12-02T19:04:36.887Z,22.63
2022-12-02T19:07:04.748Z,21.10
2022-12-02T19:09:33.189Z,20.73
2022-12-02T19:12:07.366Z,22.27
2022-12-02T19:14:36.832Z,21.50
2022-12-02T19:17:04.974Z,21.47
2022-12-02T19:19:33.023Z,23.63
2022-12-02T19:22:01.044Z,23.50
2022-12-02T19:24:28.927Z,22.70
2022-12-02T19:26:56.929Z,24.30
2022-12-02T19:29:24.772Z,23.87
2022-12-02T19:31:55.416Z,23.87
2022-12-02T19:34:23.438Z,23.43
2022-12-02T19:36:51.948Z,21.70
2022-12-02T19:39:19.857Z,20.80
2022-12-02T19:41:48.083Z,21.67
2022-12-02T19:44:16.109Z,22.13
2022-12-02T19:46:44.426Z,21.23
2022-12-02T19:49:14.418Z,20.17
2022-12-02T19:51:42.400Z,21.10
2022-12-02T19:54:10.563Z,20.90
2022-12-02T19:56:38.520Z,20.87
2022-12-02T19:59:07.407Z,19.87
2022-12-02T20:01:39.426Z,19.63
2022-12-02T20:04:33.229Z,18.90
2022-12-02T20:06:57.158Z,17.73
2022-12-02T20:09:27.989Z,18.90
2022-12-02T20:11:55.878Z,18.60
2022-12-02T20:14:23.854Z,18.87
2022-12-02T20:16:51.751Z,18.03
2022-12-02T20:19:19.554Z,17.90
2022-12-02T20:21:47.516Z,18.10
2022-12-02T20:24:17.013Z,18.13
2022-12-02T20:26:45.420Z,18.13
2022-12-02T20:29:14.516Z,17.53
2022-12-02T20:31:42.699Z,16.40
2022-12-02T20:34:10.687Z,16.93
2022-12-02T20:36:38.611Z,17.57
2022-12-02T20:39:06.808Z,16.80
2022-12-02T20:41:36.228Z,17.10
2022-12-02T20:44:04.358Z,17.73
2022-12-02T20:46:32.376Z,16.27
2022-12-02T20:49:00.372Z,15.90
2022-12-02T20:51:28.324Z,16.03
2022-12-02T20:53:56.158Z,15.80
2022-12-02T20:56:24.062Z,15.53
2022-12-02T20:58:53.507Z,16.13
2022-12-02T21:01:21.731Z,14.90
2022-12-02T21:03:49.687Z,15.00
2022-12-02T21:06:17.849Z,15.63
2022-12-02T21:08:45.792Z,14.63
2022-12-02T21:11:13.768Z,16.47
2022-12-02T21:13:44.883Z,15.27
2022-12-02T21:16:14.276Z,16.47
2022-12-02T21:18:42.264Z,16.10
2022-12-02T21:21:10.174Z,15.30
2022-12-02T21:23:38.070Z,14.90
2022-12-02T21:26:06.327Z,14.30
2022-12-02T21:28:34.250Z,15.87
2022-12-02T21:31:04.949Z,15.83
2022-12-02T21:33:34.282Z,15.90
2022-12-02T21:36:02.125Z,15.77
2022-12-02T21:38:30.779Z,15.40
2022-12-02T21:40:58.752Z,14.70
2022-12-02T21:43:26.820Z,15.97
2022-12-02T21:45:55.258Z,14.83
2022-12-02T21:48:23.332Z,15.40
2022-12-02T21:50:54.190Z,15.73
2022-12-02T21:53:24.952Z,15.43
2022-12-02T21:55:53.020Z,15.30
2022-12-02T21:58:20.892Z,15.63
2022-12-02T22:01:10.974Z,16.17
2022-12-02T22:03:39.114Z,16.53
2022-12-02T22:06:09.590Z,16.40
2022-12-02T22:08:37.536Z,16.83
2022-12-02T22:11:05.445Z,16.40
2022-12-02T22:13:33.983Z,15.67
2022-12-02T22:16:01.933Z,16.73
2022-12-02T22:18:29.888Z,16.33
2022-12-02T22:21:03.369Z,16.43
2022-12-02T22:23:32.742Z,16.27
2022-12-02T22:26:00.702Z,15.83
2022-12-02T22:28:28.741Z,16.17
2022-12-02T22:30:57.484Z,17.00
2022-12-02T22:33:30.024Z,16.13
2022-12-02T22:36:01.029Z,15.10
2022-12-02T22:38:29.162Z,15.20
2022-12-02T22:40:58.366Z,16.83
2022-12-02T22:43:26.359Z,16.23
2022-12-02T22:45:54.284Z,16.03
2022-12-02T22:48:22.208Z,16.57
2022-12-02T22:50:50.107Z,16.37
2022-12-02T22:53:17.967Z,16.10
2022-12-02T22:55:45.800Z,15.90
2022-12-02T22:58:15.118Z,16.70
2022-12-02T23:00:43.100Z,16.80
2022-12-02T23:03:10.963Z,16.73
2022-12-02T23:05:38.938Z,16.07
2022-12-02T23:08:07.076Z,16.83
2022-12-02T23:10:35.987Z,16.23
2022-12-02T23:13:05.546Z,15.83
2022-12-02T23:15:36.920Z,16.77
2022-12-02T23:18:06.394Z,15.57
2022-12-02T23:20:34.300Z,15.97
2022-12-02T23:23:02.372Z,16.60
2022-12-02T23:25:33.820Z,17.10
2022-12-02T23:28:03.040Z,15.50
2022-12-02T23:30:31.319Z,16.10
2022-12-02T23:33:00.880Z,16.13
2022-12-02T23:35:28.956Z,15.70
2022-12-02T23:37:56.927Z,15.70
2022-12-02T23:40:25.011Z,16.27
2022-12-02T23:42:53.640Z,15.60
2022-12-02T23:45:21.615Z,16.43
2022-12-02T23:47:49.483Z,17.50
2022-12-02T23:50:18.828Z,16.30
2022-12-02T23:52:46.819Z,16.63
2022-12-02T23:55:14.834Z,16.93
2022-12-02T23:57:42.921Z,16.77
